Time;durP1;ratioP1;P1;durP2;ratioP2;P2;SDS_P1;SDS_P2;PMS_P1;PMS_P2;Temp;Humidity;BMP_temperature;BMP_pressure;BME280_temperature;BME280_humidity;BME280_pressure;Samples;Min_cycle;Max_cycle;Signal;HPM_P1;HPM_P2
2022/01/20 00:01:12;;;;;;;7.78;2.05;;;3.30;99.90;;;;;;4840805;29;20107;-96
2022/01/20 00:04:21;;;;;;;8.60;2.33;;;4.20;99.90;;;;;;4841588;29;20060;-96
2022/01/20 00:28:55;;;;;;;4.18;1.67;;;3.50;99.90;;;;;;4916919;29;20051;-96
2022/01/20 00:32:03;;;;;;;7.80;2.35;;;3.40;99.90;;;;;;4915253;29;20115;-96
2022/01/20 00:35:05;;;;;;;4.78;1.65;;;3.40;99.90;;;;;;4915250;29;20135;-96
2022/01/20 00:37:32;;;;;;;6.20;1.85;;;4.40;99.90;;;;;;4928021;29;20052;-96
2022/01/20 00:40:30;;;;;;;4.18;1.70;;;3.50;99.90;;;;;;4897539;29;20052;-96
2022/01/20 00:43:06;;;;;;;;;;;;;;;;;;;;;
2022/01/20 00:46:03;;;;;;;;;;;;;;;;;;;;;
2022/01/20 00:48:45;;;;;;;6.55;1.60;;;3.70;99.90;;;;;;4937497;29;20048;-96
2022/01/20 00:51:19;;;;;;;6.90;1.60;;;4.10;99.90;;;;;;4919872;29;20065;-96
2022/01/20 00:57:16;;;;;;;5.22;2.00;;;4.40;99.90;;;;;;4944945;29;20048;-96
2022/01/20 00:59:57;;;;;;;;;;;;;;;;;;;;;
2022/01/20 01:03:06;;;;;;;6.45;2.33;;;4.20;99.90;;;;;;4946621;29;20078;-96
2022/01/20 01:08:36;;;;;;;6.72;2.20;;;3.00;99.90;;;;;;4934159;29;20092;-96
2022/01/20 01:11:08;;;;;;;8.63;2.00;;;4.10;99.90;;;;;;4931588;29;20051;-96
2022/01/20 01:13:37;;;;;;;3.78;1.25;;;3.00;99.90;;;;;;4930718;29;20056;-96
2022/01/20 01:25:18;;;;;;;6.85;1.73;;;3.10;99.90;;;;;;4949110;29;20084;-96
2022/01/20 01:28:16;;;;;;;9.75;1.98;;;3.20;99.90;;;;;;4946108;29;20067;-96
2022/01/20 01:33:48;;;;;;;;;;;;;;;;;;;;;
2022/01/20 01:36:32;;;;;;;;;;;;;;;;;;;;;
2022/01/20 01:39:16;;;;;;;;;;;;;;;;;;;;;
2022/01/20 01:42:29;;;;;;;9.05;2.03;;;2.80;99.90;;;;;;4952650;29;20064;-96
2022/01/20 01:48:40;;;;;;;8.00;1.98;;;2.80;99.90;;;;;;4896894;29;20051;-94
2022/01/20 01:51:52;;;;;;;3.20;1.13;;;4.50;99.90;;;;;;4935612;29;20558;-96
2022/01/20 01:54:36;;;;;;;;;;;;;;;;;;;;;
2022/01/20 01:57:18;;;;;;;3.05;1.10;;;3.30;99.90;;;;;;4964101;29;20048;-96
2022/01/20 02:00:15;;;;;;;6.30;1.10;;;2.20;99.90;;;;;;4931981;29;20055;-96
2022/01/20 02:02:48;;;;;;;;;;;;;;;;;;;;;
2022/01/20 02:09:09;;;;;;;;;;;;;;;;;;;;;
2022/01/20 02:20:54;;;;;;;5.30;1.08;;;4.20;99.90;;;;;;4949455;29;20059;-96
2022/01/20 02:30:01;;;;;;;3.03;1.08;;;3.10;99.90;;;;;;4923514;29;20079;-96
2022/01/20 02:33:02;;;;;;;;;;;;;;;;;;;;;
2022/01/20 02:35:52;;;;;;;4.35;0.98;;;4.60;99.90;;;;;;4943262;29;20048;-96
2022/01/20 02:38:35;;;;;;;5.32;1.38;;;3.20;99.90;;;;;;4927857;29;20051;-96
2022/01/20 02:47:04;;;;;;;8.35;1.20;;;4.50;99.90;;;;;;4947044;29;20115;-96
2022/01/20 02:49:54;;;;;;;2.35;0.98;;;3.20;99.90;;;;;;4926558;29;20122;-96
2022/01/20 02:52:43;;;;;;;3.65;2.13;;;3.10;99.90;;;;;;4939472;29;20128;-96
2022/01/20 02:55:12;;;;;;;6.28;2.80;;;3.20;99.90;;;;;;4919218;29;20510;-96
2022/01/20 02:57:41;;;;;;;5.82;1.55;;;3.00;99.90;;;;;;4923245;29;20039;-96
2022/01/20 03:00:30;;;;;;;11.88;2.35;;;3.10;99.90;;;;;;4924554;29;20062;-96
2022/01/20 03:02:57;;;;;;;10.43;2.15;;;3.00;99.90;;;;;;4939110;29;20043;-96
2022/01/20 03:05:31;;;;;;;2.23;1.60;;;2.90;99.90;;;;;;4923902;29;20059;-96
2022/01/20 03:08:05;;;;;;;12.93;2.05;;;2.20;99.90;;;;;;4923568;29;20298;-96
2022/01/20 03:10:31;;;;;;;9.13;2.85;;;2.70;99.90;;;;;;4923672;29;20191;-96
2022/01/20 03:13:25;;;;;;;4.07;1.30;;;4.00;99.90;;;;;;4922723;29;20134;-96
2022/01/20 03:16:11;;;;;;;9.70;2.38;;;2.60;99.90;;;;;;4925060;29;20451;-96
2022/01/20 03:18:42;;;;;;;6.22;2.80;;;2.70;99.90;;;;;;4927414;29;20048;-94
2022/01/20 03:21:25;;;;;;;10.35;2.42;;;3.90;99.90;;;;;;4945923;29;20048;-96
2022/01/20 03:23:54;;;;;;;13.32;3.13;;;3.50;99.90;;;;;;4914293;29;20048;-96
2022/01/20 03:26:22;;;;;;;11.85;2.65;;;2.80;99.90;;;;;;4931516;29;20158;-96
2022/01/20 03:28:54;;;;;;;13.60;2.60;;;3.70;99.90;;;;;;4931580;29;20044;-96
2022/01/20 03:31:36;;;;;;;;;;;;;;;;;;;;;
2022/01/20 03:34:27;;;;;;;;;;;;;;;;;;;;;
2022/01/20 03:37:06;;;;;;;;;;;;;;;;;;;;;
2022/01/20 03:39:40;;;;;;;12.30;3.65;;;2.90;99.90;;;;;;4949092;29;20075;-96
2022/01/20 03:42:22;;;;;;;5.82;3.10;;;4.00;99.90;;;;;;4930690;29;20052;-96
2022/01/20 03:44:57;;;;;;;11.48;2.63;;;4.10;99.90;;;;;;4931558;29;20040;-96
2022/01/20 03:47:26;;;;;;;6.22;2.15;;;3.80;99.90;;;;;;4930544;29;20483;-96
2022/01/20 03:53:12;;;;;;;7.28;3.00;;;3.30;99.90;;;;;;4945381;29;20048;-96
2022/01/20 03:55:44;;;;;;;12.82;3.75;;;2.90;99.90;;;;;;4929462;29;20047;-94
2022/01/20 03:58:41;;;;;;;13.35;2.70;;;2.70;99.90;;;;;;4931023;29;20083;-96
2022/01/20 04:01:10;;;;;;;5.72;2.38;;;2.80;99.90;;;;;;4916399;29;20044;-96
2022/01/20 04:03:36;;;;;;;4.80;3.05;;;3.90;99.90;;;;;;4928127;29;20099;-96
2022/01/20 04:06:08;;;;;;;8.65;2.83;;;4.00;99.90;;;;;;4927383;29;20240;-96
2022/01/20 04:11:47;;;;;;;16.98;2.13;;;3.70;99.90;;;;;;4950447;29;20055;-96
2022/01/20 04:14:32;;;;;;;4.93;1.65;;;4.00;99.90;;;;;;4927886;29;20060;-96
2022/01/20 04:17:06;;;;;;;6.95;1.83;;;2.80;99.90;;;;;;4941097;29;20058;-96
2022/01/20 04:19:35;;;;;;;5.18;1.90;;;2.90;99.90;;;;;;4924296;29;20127;-96
2022/01/20 04:22:02;;;;;;;5.97;1.77;;;4.10;99.90;;;;;;4923022;29;20071;-96
2022/01/20 04:24:33;;;;;;;8.57;2.85;;;2.70;99.90;;;;;;4938491;29;20043;-96
2022/01/20 04:27:02;;;;;;;10.93;1.85;;;1.80;99.90;;;;;;4921199;29;20075;-96
2022/01/20 04:29:38;;;;;;;4.25;1.80;;;2.70;99.90;;;;;;4921955;29;20145;-96
2022/01/20 04:32:09;;;;;;;8.20;1.50;;;2.60;99.90;;;;;;4920700;29;20051;-96
2022/01/20 04:34:37;;;;;;;13.00;2.00;;;2.50;99.90;;;;;;4920818;29;20130;-96
2022/01/20 04:37:14;;;;;;;8.48;1.75;;;3.20;99.90;;;;;;4920026;29;20067;-96
2022/01/20 04:39:53;;;;;;;7.35;1.80;;;2.40;99.90;;;;;;4921166;29;20043;-96
2022/01/20 04:42:37;;;;;;;9.55;1.50;;;2.20;99.90;;;;;;4904344;29;20051;-96
2022/01/20 04:45:29;;;;;;;;;;;;;;;;;;;;;
2022/01/20 04:48:23;;;;;;;4.32;1.90;;;1.50;99.90;;;;;;4935680;29;20486;-95
2022/01/20 04:59:38;;;;;;;10.55;1.85;;;3.20;99.90;;;;;;4936285;29;20051;-96
2022/01/20 05:02:09;;;;;;;14.07;2.17;;;2.20;99.90;;;;;;4919976;29;20044;-96
2022/01/20 05:04:50;;;;;;;;;;;;;;;;;;;;;
2022/01/20 05:07:24;;;;;;;6.85;1.33;;;3.30;99.90;;;;;;4936256;29;20047;-95
2022/01/20 05:09:54;;;;;;;3.58;1.42;;;2.20;99.90;;;;;;4920043;29;20039;-95
2022/01/20 05:15:42;;;;;;;;;;;;;;;;;;;;;
2022/01/20 05:18:25;;;;;;;8.82;2.03;;;2.20;99.90;;;;;;4951571;29;20485;-95
2022/01/20 05:21:19;;;;;;;9.73;2.08;;;2.20;99.90;;;;;;4920016;29;20131;-93
2022/01/20 05:23:56;;;;;;;2.53;1.60;;;3.50;99.90;;;;;;4920029;29;20056;-96
2022/01/20 05:26:35;;;;;;;;;;;;;;;;;;;;;
2022/01/20 05:32:15;;;;;;;3.13;1.23;;;2.00;99.90;;;;;;4936068;29;20086;-96
2022/01/20 05:34:43;;;;;;;2.75;1.58;;;2.30;99.90;;;;;;4919803;29;20055;-95
2022/01/20 05:37:37;;;;;;;;;;;;;;;;;;;;;
2022/01/20 05:40:17;;;;;;;0.88;0.88;;;2.60;99.90;;;;;;4934900;29;20036;-96
2022/01/20 05:42:45;;;;;;;5.03;0.77;;;2.20;99.90;;;;;;4920135;29;20048;-96
2022/01/20 05:45:17;;;;;;;2.00;0.80;;;3.30;99.90;;;;;;4919209;29;20142;-96
2022/01/20 05:48:08;;;;;;;9.57;1.75;;;2.20;99.90;;;;;;4921419;29;20501;-96
2022/01/20 05:50:36;;;;;;;5.88;1.77;;;2.20;99.90;;;;;;4919569;29;20052;-96
2022/01/20 05:53:15;;;;;;;1.73;1.35;;;3.50;99.90;;;;;;4903382;29;20040;-96
2022/01/20 05:55:41;;;;;;;9.93;1.13;;;3.10;99.90;;;;;;4919729;29;20126;-96
2022/01/20 05:58:19;;;;;;;4.73;1.30;;;2.00;99.90;;;;;;4919406;29;20139;-96
2022/01/20 06:00:46;;;;;;;;;;;1.20;99.90;;;;;;4920081;29;20479;-96
2022/01/20 06:03:38;;;;;;;3.75;0.75;;;2.00;99.90;;;;;;4919461;29;20061;-96
2022/01/20 06:06:19;;;;;;;2.10;1.20;;;2.00;99.90;;;;;;4919737;29;20043;-95
2022/01/20 06:12:12;;;;;;;;;;;;;;;;;;;;;
2022/01/20 06:14:49;;;;;;;6.28;2.10;;;3.00;99.90;;;;;;4921289;29;20363;-96
2022/01/20 06:17:27;;;;;;;;;;;;;;;;;;;;;
2022/01/20 06:20:09;;;;;;;6.53;1.92;;;2.90;99.90;;;;;;4934785;29;20051;-95
2022/01/20 06:22:44;;;;;;;11.30;1.83;;;3.00;99.90;;;;;;4906759;29;20058;-95
2022/01/20 06:25:17;;;;;;;6.50;1.58;;;2.70;99.90;;;;;;4922682;29;20044;-96
2022/01/20 06:28:05;;;;;;;3.58;1.70;;;1.80;99.90;;;;;;4922940;29;20050;-96
2022/01/20 06:30:38;;;;;;;14.57;2.17;;;1.10;99.90;;;;;;4923139;29;20051;-95
2022/01/20 06:33:29;;;;;;;11.02;2.10;;;3.10;99.90;;;;;;4938487;29;20083;-95
2022/01/20 06:35:56;;;;;;;2.90;1.80;;;3.30;99.90;;;;;;4923263;29;20058;-96
2022/01/20 06:38:27;;;;;;;12.82;3.03;;;0.80;99.90;;;;;;4922561;29;20047;-96
2022/01/20 06:41:17;;;;;;;15.10;2.03;;;1.00;99.90;;;;;;4922878;29;20050;-96
2022/01/20 06:44:20;;;;;;;;;;;;;;;;;;;;;
2022/01/20 06:47:03;;;;;;;;;;;;;;;;;;;;;
2022/01/20 06:50:00;;;;;;;1.95;1.67;;;2.00;99.90;;;;;;4938012;29;20055;-96
2022/01/20 06:52:35;;;;;;;4.00;1.90;;;1.90;99.90;;;;;;4907493;29;20087;-96
2022/01/20 06:55:39;;;;;;;;;;;;;;;;;;;;;
2022/01/20 06:58:55;;;;;;;;;;;;;;;;;;;;;
2022/01/20 07:01:39;;;;;;;;;;;;;;;;;;;;;
2022/01/20 07:07:03;;;;;;;5.82;2.35;;;1.90;99.90;;;;;;4930860;29;20147;-96
2022/01/20 07:09:47;;;;;;;;;;;;;;;;;;;;;
2022/01/20 07:12:40;;;;;;;;;;;;;;;;;;;;;
2022/01/20 07:15:36;;;;;;;8.82;1.88;;;3.00;99.90;;;;;;4954950;29;20050;-96
2022/01/20 07:18:42;;;;;;;8.23;1.45;;;3.00;99.90;;;;;;4922192;29;20114;-96
2022/01/20 07:21:49;;;;;;;2.22;1.38;;;2.60;99.90;;;;;;4925145;29;20044;-96
2022/01/20 07:24:44;;;;;;;3.60;1.77;;;1.80;99.90;;;;;;4939223;29;20040;-95
2022/01/20 07:27:35;;;;;;;;;;;;;;;;;;;;;
2022/01/20 07:30:11;;;;;;;8.52;1.88;;;1.70;99.90;;;;;;4938307;29;20534;-96
2022/01/20 07:33:08;;;;;;;5.38;2.08;;;1.70;99.90;;;;;;4925382;29;20402;-96
2022/01/20 07:35:42;;;;;;;5.13;1.85;;;1.70;99.90;;;;;;4922252;29;20048;-96
2022/01/20 07:38:39;;;;;;;2.75;1.40;;;1.80;99.90;;;;;;4921649;29;20043;-94
2022/01/20 07:41:53;;;;;;;;;;;;;;;;;;;;;
2022/01/20 07:44:31;;;;;;;4.22;1.52;;;2.00;99.90;;;;;;4936335;29;20059;-96
2022/01/20 07:47:11;;;;;;;3.60;2.50;;;3.00;99.90;;;;;;4921813;29;20082;-96
2022/01/20 07:49:41;;;;;;;8.90;2.17;;;1.80;99.90;;;;;;4936860;29;20091;-95
2022/01/20 07:52:43;;;;;;;1.67;1.33;;;1.90;99.90;;;;;;4921253;29;20048;-95
2022/01/20 07:55:38;;;;;;;;;;;;;;;;;;;;;
2022/01/20 07:58:16;;;;;;;;;;;;;;;;;;;;;
2022/01/20 08:00:51;;;;;;;7.70;2.45;;;1.80;99.90;;;;;;4936869;29;20075;-96
2022/01/20 08:03:41;;;;;;;;;;;;;;;;;;;;;
2022/01/20 08:06:33;;;;;;;8.93;2.22;;;1.80;99.90;;;;;;4937514;29;20047;-96
2022/01/20 08:09:24;;;;;;;;;;;;;;;;;;;;;
2022/01/20 08:12:01;;;;;;;5.80;2.75;;;2.40;99.90;;;;;;4923211;29;20047;-95
2022/01/20 08:14:59;;;;;;;4.65;2.47;;;3.20;99.90;;;;;;4936735;29;20048;-95
2022/01/20 08:18:06;;;;;;;3.67;2.20;;;2.10;99.90;;;;;;4936509;29;20043;-94
2022/01/20 08:20:57;;;;;;;;;;;;;;;;;;;;;
2022/01/20 08:27:48;;;;;;;14.73;3.72;;;3.40;99.90;;;;;;4936847;29;20438;-95
2022/01/20 08:30:46;;;;;;;;;;;;;;;;;;;;;
2022/01/20 08:46:19;;;;;;;7.07;2.40;;;2.10;99.90;;;;;;4918650;29;20591;-95
2022/01/20 08:48:55;;;;;;;10.25;2.28;;;3.10;99.90;;;;;;4892326;29;20070;-95
2022/01/20 08:51:39;;;;;;;7.68;2.22;;;2.60;99.90;;;;;;4919383;29;20048;-96
2022/01/20 08:54:41;;;;;;;;;;;;;;;;;;;;;
2022/01/20 08:58:11;;;;;;;4.45;1.48;;;2.80;99.90;;;;;;4936913;29;20047;-96
2022/01/20 09:08:33;;;;;;;;;;;;;;;;;;;;;
2022/01/20 09:44:58;;;;;;;4.40;1.40;;;3.10;99.90;;;;;;4821663;29;20062;-96
2022/01/20 09:48:04;;;;;;;2.97;1.63;;;2.80;99.90;;;;;;4785454;29;20477;-96
2022/01/20 09:54:04;;;;;;;4.60;2.17;;;2.60;99.90;;;;;;4825957;29;20065;-94
2022/01/20 10:04:27;;;;;;;;;;;;;;;;;;;;;
2022/01/20 10:07:47;;;;;;;;;;;;;;;;;;;;;
2022/01/20 10:11:21;;;;;;;;;;;;;;;;;;;;;
2022/01/20 10:17:52;;;;;;;;;;;;;;;;;;;;;
2022/01/20 10:20:54;;;;;;;4.70;1.50;;;3.80;99.90;;;;;;4938634;29;20159;-96
2022/01/20 10:24:08;;;;;;;6.53;1.58;;;4.60;99.90;;;;;;4913264;29;20138;-96
2022/01/20 10:30:37;;;;;;;;;;;;;;;;;;;;;
2022/01/20 10:33:54;;;;;;;4.82;1.20;;;4.60;99.90;;;;;;4939090;29;20131;-95
2022/01/20 10:36:39;;;;;;;;;;;;;;;;;;;;;
2022/01/20 10:39:13;;;;;;;3.10;1.63;;;4.10;99.90;;;;;;4938279;29;19918;-95
2022/01/20 10:41:59;;;;;;;2.53;1.27;;;4.00;99.90;;;;;;4927101;29;20441;-96
2022/01/20 10:47:54;;;;;;;6.95;2.45;;;4.00;99.90;;;;;;4908581;29;20617;-96
2022/01/20 10:50:52;;;;;;;6.95;1.90;;;4.40;99.90;;;;;;4893264;29;20052;-96
2022/01/20 10:53:42;;;;;;;6.72;1.75;;;4.90;99.90;;;;;;4930110;29;20051;-96
2022/01/20 10:56:17;;;;;;;5.15;1.40;;;5.10;99.90;;;;;;4941515;29;20058;-96
2022/01/20 10:59:03;;;;;;;9.32;1.80;;;4.90;99.90;;;;;;4908950;29;20048;-96
2022/01/20 11:01:39;;;;;;;7.68;1.75;;;4.60;99.90;;;;;;4955375;29;20046;-96
2022/01/20 11:04:17;;;;;;;;;;;;;;;;;;;;;
2022/01/20 11:06:58;;;;;;;;;;;;;;;;;;;;;
2022/01/20 11:10:24;;;;;;;2.78;1.60;;;5.30;99.90;;;;;;4925627;29;20072;-96
2022/01/20 11:12:58;;;;;;;6.20;1.85;;;4.60;99.90;;;;;;4936500;29;20047;-96
2022/01/20 11:15:29;;;;;;;10.55;1.50;;;5.00;99.90;;;;;;4928871;29;20058;-96
2022/01/20 11:18:16;;;;;;;;;;;;;;;;;;;;;
2022/01/20 11:20:55;;;;;;;6.37;1.77;;;5.80;99.90;;;;;;4937283;29;20039;-95
2022/01/20 11:23:31;;;;;;;;;;;;;;;;;;;;;
2022/01/20 11:26:18;;;;;;;2.55;1.67;;;6.40;99.90;;;;;;4937508;29;20502;-95
2022/01/20 11:29:06;;;;;;;6.07;1.60;;;6.30;99.90;;;;;;4921143;29;20052;-95
2022/01/20 11:32:10;;;;;;;;;;;;;;;;;;;;;
2022/01/20 11:35:21;;;;;;;;;;;;;;;;;;;;;
2022/01/20 11:41:13;;;;;;;4.00;1.17;;;4.60;99.90;;;;;;4934049;29;20150;-95
2022/01/20 11:43:53;;;;;;;4.03;1.75;;;3.40;99.90;;;;;;4921374;29;20099;-95
2022/01/20 11:46:33;;;;;;;3.03;1.38;;;4.10;99.90;;;;;;4922324;29;20123;-95
2022/01/20 11:49:37;;;;;;;5.38;1.52;;;4.40;99.90;;;;;;4921408;29;20052;-95
2022/01/20 11:52:24;;;;;;;1.88;1.65;;;5.30;99.90;;;;;;4918421;29;20047;-95
2022/01/20 11:55:31;;;;;;;4.93;1.33;;;5.10;99.90;;;;;;4921587;29;20043;-95
2022/01/20 12:01:55;;;;;;;;;;;;;;;;;;;;;
2022/01/20 12:05:19;;;;;;;2.92;0.43;;;4.40;99.90;;;;;;4922415;29;20070;-95
2022/01/20 12:08:24;;;;;;;;;;;;;;;;;;;;;
2022/01/20 12:11:45;;;;;;;3.80;1.02;;;3.60;99.90;;;;;;4937164;29;20052;-95
2022/01/20 12:14:35;;;;;;;;;;;;;;;;;;;;;
2022/01/20 12:17:20;;;;;;;3.38;1.27;;;3.90;99.90;;;;;;4936388;29;20126;-96
2022/01/20 12:19:58;;;;;;;5.15;1.65;;;4.10;99.90;;;;;;4920141;29;20471;-95
2022/01/20 12:22:37;;;;;;;3.92;1.25;;;5.80;99.90;;;;;;4921391;29;20135;-95
2022/01/20 12:25:27;;;;;;;;;;;;;;;;;;;;;
2022/01/20 12:28:31;;;;;;;4.65;1.40;;;5.70;99.90;;;;;;4937555;29;20095;-96
2022/01/20 12:31:14;;;;;;;;;;;;;;;;;;;;;
2022/01/20 12:33:58;;;;;;;;;;;;;;;;;;;;;
2022/01/20 12:36:44;;;;;;;2.78;1.73;;;5.00;99.90;;;;;;4936382;29;20047;-94
2022/01/20 12:39:30;;;;;;;;;;;;;;;;;;;;;
2022/01/20 12:42:15;;;;;;;;;;;;;;;;;;;;;
2022/01/20 12:45:00;;;;;;;;;;;;;;;;;;;;;
2022/01/20 12:47:58;;;;;;;9.52;1.83;;;4.50;99.90;;;;;;4936338;29;20054;-96
2022/01/20 12:50:38;;;;;;;1.92;1.45;;;4.10;99.90;;;;;;4920349;29;20056;-95
2022/01/20 12:53:40;;;;;;;5.20;1.67;;;4.80;99.90;;;;;;4936299;29;20055;-95
2022/01/20 12:56:38;;;;;;;;;;;;;;;;;;;;;
2022/01/20 12:59:32;;;;;;;4.13;1.52;;;4.60;99.90;;;;;;4935727;29;20165;-96
2022/01/20 13:02:32;;;;;;;;;;;;;;;;;;;;;
2022/01/20 13:05:29;;;;;;;3.15;1.55;;;4.00;99.90;;;;;;4939730;29;20048;-96
2022/01/20 13:08:20;;;;;;;;;;;;;;;;;;;;;
2022/01/20 13:11:17;;;;;;;11.73;2.50;;;4.70;99.90;;;;;;4938230;29;20433;-96
2022/01/20 13:13:52;;;;;;;3.17;1.40;;;4.20;99.90;;;;;;4922250;29;20047;-96
2022/01/20 13:22:53;;;;;;;;;;;;;;;;;;;;;
2022/01/20 13:25:41;;;;;;;;;;;;;;;;;;;;;
2022/01/20 13:31:45;;;;;;;;;;;;;;;;;;;;;
2022/01/20 13:34:53;;;;;;;4.63;1.85;;;4.60;99.90;;;;;;4934615;29;20047;-95
2022/01/20 13:38:08;;;;;;;;;;;;;;;;;;;;;
2022/01/20 13:40:53;;;;;;;7.95;2.00;;;5.10;99.90;;;;;;4934626;29;20078;-94
2022/01/20 13:46:58;;;;;;;4.88;1.30;;;5.50;99.90;;;;;;4886562;29;20546;-96
2022/01/20 13:53:02;;;;;;;1.23;1.10;;;5.70;99.90;;;;;;4876979;29;20091;-96
2022/01/20 13:56:10;;;;;;;3.65;1.27;;;5.70;99.90;;;;;;4901261;29;20059;-96
2022/01/20 14:09:02;;;;;;;5.20;1.13;;;4.60;99.90;;;;;;4896826;29;20072;-96
2022/01/20 14:13:34;;;;;;;6.90;1.67;;;5.10;99.90;;;;;;4817147;29;20054;-94
2022/01/20 14:16:01;;;;;;;4.95;1.75;;;5.00;99.90;;;;;;4815171;29;20054;-94
2022/01/20 14:22:06;;;;;;;;;;;;;;;;;;;;;
2022/01/20 14:25:10;;;;;;;2.42;1.17;;;4.50;99.90;;;;;;4918204;29;20083;-96
2022/01/20 14:28:07;;;;;;;6.53;1.90;;;5.20;99.90;;;;;;4920760;29;20142;-95
2022/01/20 14:30:55;;;;;;;2.55;1.38;;;4.20;99.90;;;;;;4903844;29;20047;-95
2022/01/20 14:34:19;;;;;;;3.22;1.30;;;4.10;99.90;;;;;;4903785;29;20119;-94
2022/01/20 14:37:17;;;;;;;;;;;;;;;;;;;;;
2022/01/20 14:40:04;;;;;;;7.20;1.92;;;2.90;99.90;;;;;;4919435;29;20039;-95
2022/01/20 14:43:22;;;;;;;3.90;1.40;;;3.80;99.90;;;;;;4904848;29;20048;-95
2022/01/20 14:46:08;;;;;;;;;;;;;;;;;;;;;
2022/01/20 14:48:51;;;;;;;7.35;3.15;;;3.60;99.90;;;;;;4922431;29;20039;-96
2022/01/20 14:52:08;;;;;;;1.75;1.17;;;3.50;99.90;;;;;;4902971;29;20058;-96
2022/01/20 14:54:42;;;;;;;3.80;1.27;;;4.70;99.90;;;;;;4916580;29;20399;-95
2022/01/20 14:57:16;;;;;;;1.88;1.20;;;3.60;99.90;;;;;;4903694;29;20138;-96
2022/01/20 14:59:52;;;;;;;;;;;;;;;;;;;;;
2022/01/20 15:13:09;;;;;;;6.55;1.73;;;4.20;99.90;;;;;;4832993;29;20081;-95
2022/01/20 15:16:27;;;;;;;;;;;;;;;;;;;;;
2022/01/20 15:19:42;;;;;;;;;;;;;;;;;;;;;
2022/01/20 15:25:58;;;;;;;;;;;;;;;;;;;;;
2022/01/20 15:29:18;;;;;;;;;;;;;;;;;;;;;
2022/01/20 15:32:03;;;;;;;8.02;2.08;;;3.80;99.90;;;;;;4918720;29;20056;-95
2022/01/20 15:35:03;;;;;;;7.32;1.67;;;4.30;99.90;;;;;;4902701;29;20040;-96
2022/01/20 15:40:47;;;;;;;8.80;2.63;;;4.00;99.90;;;;;;4917987;29;20044;-96
2022/01/20 15:43:23;;;;;;;5.45;1.92;;;3.40;99.90;;;;;;4902029;29;20086;-95
2022/01/20 15:45:52;;;;;;;8.48;2.60;;;4.40;99.90;;;;;;4886653;29;20051;-95
2022/01/20 15:48:23;;;;;;;4.35;2.42;;;3.40;99.90;;;;;;4902374;29;20047;-95
2022/01/20 15:51:02;;;;;;;6.07;1.98;;;2.70;99.90;;;;;;4903578;29;20135;-95
2022/01/20 15:53:28;;;;;;;12.77;2.38;;;3.40;99.90;;;;;;4901976;29;20657;-94
2022/01/20 15:55:56;;;;;;;15.53;2.50;;;4.10;99.90;;;;;;4902273;29;20095;-93
2022/01/20 15:58:21;;;;;;;12.60;2.70;;;3.90;99.90;;;;;;4902030;29;20044;-94
2022/01/20 16:00:51;;;;;;;8.53;2.47;;;3.80;99.90;;;;;;4902303;29;20043;-95
2022/01/20 16:03:17;;;;;;;6.40;3.47;;;3.20;99.90;;;;;;4917901;29;20122;-95
2022/01/20 16:05:46;;;;;;;7.50;2.43;;;3.30;99.90;;;;;;4902516;29;20494;-94
2022/01/20 16:08:17;;;;;;;7.13;2.42;;;3.20;99.90;;;;;;4901870;29;20506;-95
2022/01/20 16:10:46;;;;;;;8.70;3.00;;;3.80;99.90;;;;;;4918534;29;20143;-93
2022/01/20 16:13:17;;;;;;;9.43;2.88;;;2.60;99.90;;;;;;4908530;29;20047;-94
2022/01/20 16:15:43;;;;;;;4.88;1.92;;;3.30;99.90;;;;;;4906999;29;20279;-95
2022/01/20 16:18:22;;;;;;;;;;;;;;;;;;;;;
2022/01/20 16:21:06;;;;;;;;;;;;;;;;;;;;;
2022/01/20 16:23:54;;;;;;;5.05;2.13;;;3.50;99.90;;;;;;4917350;29;20056;-96
2022/01/20 16:26:23;;;;;;;5.78;2.28;;;3.30;99.90;;;;;;4916981;29;20084;-95
2022/01/20 16:28:49;;;;;;;4.93;2.13;;;3.30;99.90;;;;;;4901968;29;20051;-94
2022/01/20 16:31:21;;;;;;;6.05;2.20;;;4.60;99.90;;;;;;4902060;29;20107;-95
2022/01/20 16:34:04;;;;;;;6.72;2.08;;;4.50;99.90;;;;;;4912261;29;20131;-95
2022/01/20 16:36:35;;;;;;;3.50;1.63;;;3.20;99.90;;;;;;4912834;29;20095;-96
2022/01/20 16:39:13;;;;;;;;;;;;;;;;;;;;;
2022/01/20 16:41:49;;;;;;;12.32;2.78;;;4.00;99.90;;;;;;4917362;29;20036;-94
2022/01/20 16:44:25;;;;;;;9.57;2.25;;;2.60;99.90;;;;;;4900985;29;20059;-95
2022/01/20 16:46:51;;;;;;;3.70;1.85;;;3.00;99.90;;;;;;4902340;29;20079;-95
2022/01/20 16:49:20;;;;;;;6.83;2.00;;;2.90;99.90;;;;;;4901121;29;20082;-95
2022/01/20 16:51:58;;;;;;;13.77;1.80;;;2.40;99.90;;;;;;4901493;29;20052;-95
2022/01/20 16:54:28;;;;;;;;;;;2.40;99.90;;;;;;4917121;29;20431;-95
2022/01/20 16:56:57;;;;;;;2.60;1.95;;;2.20;99.90;;;;;;4902061;29;19930;-94
2022/01/20 16:59:29;;;;;;;8.50;2.37;;;2.10;99.90;;;;;;4901033;29;20134;-95
2022/01/20 17:02:00;;;;;;;6.00;2.72;;;1.10;99.90;;;;;;4901552;29;20479;-95
2022/01/20 17:04:32;;;;;;;2.35;1.90;;;2.30;99.90;;;;;;4900626;29;20099;-94
2022/01/20 17:07:02;;;;;;;6.05;2.83;;;2.70;99.90;;;;;;4885067;29;20107;-96
2022/01/20 17:09:33;;;;;;;6.57;2.03;;;3.00;99.90;;;;;;4900736;29;20051;-95
2022/01/20 17:12:07;;;;;;;4.75;2.05;;;3.20;99.90;;;;;;4917548;29;20050;-94
2022/01/20 17:14:33;;;;;;;3.55;2.13;;;1.90;99.90;;;;;;4917027;29;20138;-95
2022/01/20 17:17:01;;;;;;;4.63;1.87;;;1.90;99.90;;;;;;4903826;29;20080;-95
2022/01/20 17:20:00;;;;;;;4.97;2.33;;;2.00;99.90;;;;;;4919416;29;20127;-95
2022/01/20 17:22:32;;;;;;;11.82;2.50;;;2.00;99.90;;;;;;4903472;29;20060;-95
2022/01/20 17:25:07;;;;;;;4.63;2.30;;;3.30;99.90;;;;;;4903686;29;20039;-94
2022/01/20 17:27:57;;;;;;;10.18;2.47;;;2.10;99.90;;;;;;4903887;29;20184;-95
2022/01/20 17:30:31;;;;;;;7.68;2.70;;;1.90;99.90;;;;;;4904399;29;20064;-95
2022/01/20 17:32:57;;;;;;;2.85;2.30;;;2.60;99.90;;;;;;4904561;29;20062;-95
2022/01/20 17:35:33;;;;;;;11.67;2.80;;;2.60;99.90;;;;;;4904112;29;20100;-96
2022/01/20 17:37:59;;;;;;;6.85;1.77;;;2.80;99.90;;;;;;4903936;29;20123;-95
2022/01/20 17:40:41;;;;;;;;;;;;;;;;;;;;;
2022/01/20 17:43:29;;;;;;;6.70;2.15;;;2.70;99.90;;;;;;4918611;29;20376;-94
2022/01/20 17:46:06;;;;;;;11.82;2.92;;;2.00;99.90;;;;;;4918090;29;20047;-95
2022/01/20 17:48:34;;;;;;;5.38;3.15;;;1.90;99.90;;;;;;4899994;29;20051;-94
2022/01/20 17:51:11;;;;;;;10.00;3.20;;;3.00;99.90;;;;;;4902194;29;20142;-94
2022/01/20 17:53:37;;;;;;;8.00;3.17;;;2.10;99.90;;;;;;4900217;29;20055;-94
2022/01/20 17:56:06;;;;;;;10.13;3.47;;;2.00;99.90;;;;;;4916647;29;20048;-96
2022/01/20 17:58:38;;;;;;;9.27;3.10;;;1.90;99.90;;;;;;4900562;29;20072;-95
2022/01/20 18:01:37;;;;;;;8.32;2.58;;;2.80;99.90;;;;;;4900744;29;20119;-94
2022/01/20 18:04:03;;;;;;;11.75;2.42;;;3.40;99.90;;;;;;4881033;29;20120;-95
2022/01/20 18:06:34;;;;;;;5.85;2.35;;;1.90;99.90;;;;;;4867448;29;20572;-96
2022/01/20 18:09:00;;;;;;;11.30;5.70;;;2.00;99.90;;;;;;4900644;29;20036;-96
2022/01/20 18:11:29;;;;;;;21.57;3.77;;;2.10;99.90;;;;;;4900192;29;20048;-96
2022/01/20 18:16:58;;;;;;;10.80;2.72;;;2.00;99.90;;;;;;4918238;29;20143;-96
2022/01/20 18:19:25;;;;;;;10.75;2.78;;;3.20;99.90;;;;;;4904515;29;20048;-94
2022/01/20 18:21:59;;;;;;;8.50;3.97;;;1.90;99.90;;;;;;4920200;29;20051;-96
2022/01/20 18:24:34;;;;;;;9.48;2.92;;;2.80;99.90;;;;;;4904718;29;20040;-95
2022/01/20 18:27:00;;;;;;;13.65;2.92;;;2.10;99.90;;;;;;4920941;29;20146;-95
2022/01/20 18:29:31;;;;;;;6.80;3.80;;;2.00;99.90;;;;;;4904104;29;20048;-93
2022/01/20 18:32:03;;;;;;;5.97;2.75;;;3.20;99.90;;;;;;4903802;29;20491;-96
2022/01/20 18:34:29;;;;;;;11.02;3.17;;;1.80;99.90;;;;;;4903930;29;20051;-95
2022/01/20 18:36:57;;;;;;;11.07;3.00;;;2.10;99.90;;;;;;4904311;29;20048;-95
2022/01/20 18:39:23;;;;;;;8.23;3.92;;;1.90;99.90;;;;;;4904074;29;20047;-95
2022/01/20 18:41:51;;;;;;;10.17;4.60;;;2.30;99.90;;;;;;4903841;29;20472;-96
2022/01/20 18:44:25;;;;;;;14.65;4.50;;;1.00;99.90;;;;;;4903956;29;20044;-96
2022/01/20 18:46:53;;;;;;;8.18;2.35;;;3.60;99.90;;;;;;4903869;29;20056;-95
2022/01/20 18:49:25;;;;;;;14.80;2.55;;;3.40;99.90;;;;;;4903662;29;20044;-94
2022/01/20 18:51:56;;;;;;;10.48;3.30;;;3.20;99.90;;;;;;4903447;29;20063;-94
2022/01/20 18:54:25;;;;;;;6.65;3.30;;;3.10;99.90;;;;;;4889784;29;20048;-94
2022/01/20 18:57:03;;;;;;;3.13;1.95;;;3.40;99.90;;;;;;4905369;29;20043;-95
2022/01/20 18:59:32;;;;;;;5.90;2.15;;;3.30;99.90;;;;;;4905121;29;20047;-96
2022/01/20 19:02:10;;;;;;;10.23;3.58;;;3.10;99.90;;;;;;4922311;29;20040;-95
2022/01/20 19:04:36;;;;;;;7.90;2.90;;;2.20;99.90;;;;;;4922234;29;20044;-96
2022/01/20 19:07:10;;;;;;;8.43;2.23;;;2.20;99.90;;;;;;4906307;29;20096;-96
2022/01/20 19:09:39;;;;;;;7.82;2.55;;;2.10;99.90;;;;;;4903993;29;20044;-94
2022/01/20 19:12:25;;;;;;;4.07;2.15;;;2.20;99.90;;;;;;4903845;29;20047;-94
2022/01/20 19:14:51;;;;;;;4.75;3.00;;;3.40;99.90;;;;;;4918961;29;20132;-95
2022/01/20 19:17:24;;;;;;;7.20;2.63;;;2.30;99.90;;;;;;4903114;29;20040;-95
2022/01/20 19:19:53;;;;;;;5.55;2.63;;;1.40;99.90;;;;;;4902967;29;20082;-96
2022/01/20 19:22:24;;;;;;;3.17;2.45;;;3.10;99.90;;;;;;4903422;29;20048;-94
2022/01/20 19:24:58;;;;;;;6.03;2.35;;;2.20;99.90;;;;;;4902494;29;20192;-94
2022/01/20 19:27:27;;;;;;;13.63;3.00;;;2.30;99.90;;;;;;4902555;29;20048;-96
2022/01/20 19:30:01;;;;;;;12.65;2.58;;;2.10;99.90;;;;;;4918225;29;20127;-95
2022/01/20 19:32:29;;;;;;;4.10;2.50;;;2.20;99.90;;;;;;4903183;29;20056;-95
2022/01/20 19:35:05;;;;;;;5.47;2.35;;;2.10;99.90;;;;;;4902627;29;20059;-96
2022/01/20 19:37:36;;;;;;;12.23;4.20;;;2.00;99.90;;;;;;4903122;29;20044;-94
2022/01/20 19:40:04;;;;;;;13.10;3.33;;;1.30;99.90;;;;;;4903008;29;20043;-96
2022/01/20 19:42:30;;;;;;;9.65;3.05;;;1.90;99.90;;;;;;4902839;29;20491;-94
2022/01/20 19:44:58;;;;;;;10.43;6.33;;;3.20;99.90;;;;;;4902224;29;20067;-95